createdAt,value
2022-12-18T00:01:36.527Z,100888.63
2022-12-18T00:04:06.564Z,100881.88
2022-12-18T00:06:33.948Z,100880.72
2022-12-18T00:09:01.979Z,100883.28
2022-12-18T00:11:31.391Z,100881.31
2022-12-18T00:14:00.251Z,100890.06
2022-12-18T00:16:28.691Z,100893.44
2022-12-18T00:18:59.231Z,100892.84
2022-12-18T00:21:27.317Z,100897.81
2022-12-18T00:23:56.151Z,100906.72
2022-12-18T00:26:29.404Z,100905.13
2022-12-18T00:29:08.568Z,100905.13
2022-12-18T00:31:35.857Z,100901.75
2022-12-18T00:34:03.114Z,100909.50
2022-12-18T00:36:33.260Z,100919.38
2022-12-18T00:39:02.157Z,100912.78
2022-12-18T00:41:29.236Z,100910.03
2022-12-18T00:43:57.467Z,100906.81
2022-12-18T00:46:24.249Z,100901.22
2022-12-18T00:48:51.065Z,100903.81
2022-12-18T00:51:17.866Z,100911.75
2022-12-18T00:53:44.826Z,100912.28
2022-12-18T00:56:11.659Z,100908.09
2022-12-18T00:58:38.498Z,100912.81
2022-12-18T01:01:06.617Z,100913.16
2022-12-18T01:03:36.296Z,100914.72
2022-12-18T01:06:12.729Z,100922.38
2022-12-18T01:08:40.309Z,100921.47
2022-12-18T01:11:14.890Z,100931.00
2022-12-18T01:13:42.700Z,100937.94
2022-12-18T01:16:12.115Z,100935.38
2022-12-18T01:18:38.975Z,100949.34
2022-12-18T01:21:15.449Z,100944.63
2022-12-18T01:23:42.764Z,100935.97
2022-12-18T01:26:17.262Z,100949.69
2022-12-18T01:28:44.501Z,100953.25
2022-12-18T01:31:27.229Z,100948.09
2022-12-18T01:33:56.404Z,100943.72
2022-12-18T01:36:28.637Z,100950.66
2022-12-18T01:38:56.562Z,100950.22
2022-12-18T01:41:27.421Z,100945.88
2022-12-18T01:43:57.692Z,100946.41
2022-12-18T01:46:25.972Z,100949.88
2022-12-18T01:49:02.348Z,100957.28
2022-12-18T01:51:31.786Z,100953.78
2022-12-18T01:54:00.393Z,100957.16
2022-12-18T01:56:28.034Z,100960.69
2022-12-18T01:59:14.916Z,100959.91
2022-12-18T02:01:41.797Z,100963.03
2022-12-18T02:04:22.182Z,100970.94
2022-12-18T02:06:56.764Z,100966.94
2022-12-18T02:09:33.473Z,100969.66
2022-12-18T02:12:17.903Z,100970.22
2022-12-18T02:14:47.573Z,100979.88
2022-12-18T02:17:23.444Z,100981.84
2022-12-18T02:19:56.784Z,100981.22
2022-12-18T02:22:45.407Z,100978.91
2022-12-18T02:25:27.153Z,100983.22
2022-12-18T02:27:57.685Z,100987.47
2022-12-18T02:30:25.353Z,100995.75
2022-12-18T02:32:54.955Z,100995.75
2022-12-18T02:35:25.940Z,100990.13
2022-12-18T02:37:56.404Z,101000.91
2022-12-18T02:40:26.525Z,100997.41
2022-12-18T02:42:53.334Z,101003.69
2022-12-18T02:45:21.323Z,100998.91
2022-12-18T02:47:51.158Z,101001.03
2022-12-18T02:50:35.255Z,101008.41
2022-12-18T02:53:18.698Z,101001.69
2022-12-18T02:55:46.801Z,101013.00
2022-12-18T02:58:22.146Z,101011.84
2022-12-18T03:01:00.014Z,101013.00
2022-12-18T03:03:39.375Z,101022.00
2022-12-18T03:06:12.057Z,101021.47
2022-12-18T03:08:53.038Z,101020.34
2022-12-18T03:11:20.059Z,101028.56
2022-12-18T03:13:53.857Z,101032.00
2022-12-18T03:16:29.826Z,101029.41
2022-12-18T03:19:01.949Z,101024.03
2022-12-18T03:21:36.469Z,101023.66
2022-12-18T03:24:08.963Z,101025.84
2022-12-18T03:26:41.863Z,101027.56
2022-12-18T03:29:24.742Z,101018.75
2022-12-18T03:31:56.952Z,101028.41
2022-12-18T03:34:36.773Z,101025.94
2022-12-18T03:37:08.254Z,101028.38
2022-12-18T03:39:37.902Z,101027.09
2022-12-18T03:42:40.403Z,101034.31
2022-12-18T03:45:19.682Z,101037.97
2022-12-18T03:48:00.960Z,101032.03
2022-12-18T03:50:59.202Z,101029.19
2022-12-18T03:53:45.323Z,101032.09
2022-12-18T03:56:15.282Z,101035.97
2022-12-18T03:58:44.957Z,101047.38
2022-12-18T04:01:21.935Z,101043.81
2022-12-18T04:03:50.624Z,101051.25
2022-12-18T04:06:20.714Z,101052.91
2022-12-18T04:08:48.578Z,101054.00
2022-12-18T04:11:20.503Z,101056.09
2022-12-18T04:13:48.246Z,101061.94
2022-12-18T04:16:20.824Z,101071.56
2022-12-18T04:18:52.039Z,101066.28
2022-12-18T04:21:20.546Z,101071.28
2022-12-18T04:23:48.809Z,101073.53
2022-12-18T04:26:18.195Z,101073.72
2022-12-18T04:28:54.476Z,101079.34
2022-12-18T04:31:22.598Z,101081.25
2022-12-18T04:33:50.095Z,101085.28
2022-12-18T04:36:17.478Z,101092.19
2022-12-18T04:38:45.533Z,101087.84
2022-12-18T04:41:15.586Z,101093.19
2022-12-18T04:43:44.626Z,101096.41
2022-12-18T04:46:11.405Z,101094.00
2022-12-18T04:48:39.272Z,101103.16
2022-12-18T04:51:07.459Z,101102.69
2022-12-18T04:53:34.813Z,101100.91
2022-12-18T04:56:12.409Z,101096.56
2022-12-18T04:58:41.558Z,101103.78
2022-12-18T05:01:09.408Z,101100.91
2022-12-18T05:03:37.583Z,101116.19
2022-12-18T05:06:06.009Z,101114.56
2022-12-18T05:08:33.213Z,101120.84
2022-12-18T05:11:09.369Z,101121.94
2022-12-18T05:13:38.727Z,101129.19
2022-12-18T05:16:07.445Z,101118.75
2022-12-18T05:18:34.872Z,101131.44
2022-12-18T05:21:02.023Z,101134.81
2022-12-18T05:23:29.272Z,101133.69
2022-12-18T05:26:02.352Z,101122.59
2022-12-18T05:28:31.645Z,101124.38
2022-12-18T05:31:01.826Z,101129.81
2022-12-18T05:33:32.672Z,101126.91
2022-12-18T05:36:01.521Z,101128.81
2022-12-18T05:38:30.105Z,101139.94
2022-12-18T05:40:57.986Z,101133.94
2022-12-18T05:43:27.927Z,101137.63
2022-12-18T05:45:55.584Z,101141.97
2022-12-18T05:48:22.996Z,101138.59
2022-12-18T05:50:51.368Z,101133.63
2022-12-18T05:53:20.576Z,101125.25
2022-12-18T05:55:48.534Z,101140.19
2022-12-18T05:58:16.297Z,101142.13
2022-12-18T06:00:46.016Z,101144.41
2022-12-18T06:03:14.627Z,101145.44
2022-12-18T06:05:44.796Z,101148.78
2022-12-18T06:08:13.356Z,101154.72
2022-12-18T06:10:40.691Z,101167.44
2022-12-18T06:13:08.397Z,101153.50
2022-12-18T06:15:38.315Z,101170.94
2022-12-18T06:18:05.116Z,101173.19
2022-12-18T06:20:33.612Z,101172.13
2022-12-18T06:23:01.342Z,101176.94
2022-12-18T06:25:28.188Z,101172.66
2022-12-18T06:27:55.065Z,101180.47
2022-12-18T06:30:21.957Z,101181.91
2022-12-18T06:32:56.418Z,101185.06
2022-12-18T06:35:24.143Z,101178.13
2022-12-18T06:37:50.925Z,101177.13
2022-12-18T06:40:18.188Z,101178.56
2022-12-18T06:42:45.052Z,101184.41
2022-12-18T06:45:12.057Z,101180.94
2022-12-18T06:47:41.664Z,101191.84
2022-12-18T06:50:09.174Z,101200.47
2022-12-18T06:52:35.939Z,101207.25
2022-12-18T06:55:03.003Z,101198.31
2022-12-18T06:57:29.949Z,101211.25
2022-12-18T06:59:56.751Z,101216.16
2022-12-18T07:02:23.584Z,101205.25
2022-12-18T07:04:50.434Z,101217.06
2022-12-18T07:07:17.877Z,101221.53
2022-12-18T07:09:44.649Z,101224.38
2022-12-18T07:12:11.446Z,101234.66
2022-12-18T07:14:38.236Z,101232.44
2022-12-18T07:17:05.089Z,101228.25
2022-12-18T07:19:33.591Z,101226.50
2022-12-18T07:22:00.505Z,101251.72
2022-12-18T07:24:27.413Z,101257.38
2022-12-18T07:26:54.331Z,101255.81
2022-12-18T07:29:22.173Z,101258.91
2022-12-18T07:31:49.355Z,101261.03
2022-12-18T07:34:16.412Z,101261.53
2022-12-18T07:36:43.252Z,101265.41
2022-12-18T07:39:12.489Z,101276.63
2022-12-18T07:41:43.751Z,101275.03
2022-12-18T07:44:16.250Z,101269.31
2022-12-18T07:46:43.185Z,101280.72
2022-12-18T07:49:09.918Z,101286.22
2022-12-18T07:51:36.769Z,101288.31
2022-12-18T07:54:03.594Z,101299.72
2022-12-18T07:56:31.676Z,101291.88
2022-12-18T07:59:00.313Z,101303.63
2022-12-18T08:01:30.637Z,101303.97
2022-12-18T08:03:58.543Z,101314.25
2022-12-18T08:06:25.335Z,101318.44
2022-12-18T08:08:56.421Z,101318.34
2022-12-18T08:11:24.854Z,101313.50
2022-12-18T08:13:52.139Z,101309.31
2022-12-18T08:16:20.044Z,101311.91
2022-12-18T08:18:47.698Z,101306.16
2022-12-18T08:21:17.287Z,101310.84
2022-12-18T08:23:44.355Z,101303.31
2022-12-18T08:26:14.737Z,101312.31
2022-12-18T08:28:41.886Z,101298.94
2022-12-18T08:31:10.061Z,101302.47
2022-12-18T08:33:38.766Z,101306.66
2022-12-18T08:36:06.726Z,101315.22
2022-12-18T08:38:34.193Z,101303.97
2022-12-18T08:41:01.850Z,101302.69
2022-12-18T08:43:29.037Z,101315.41
2022-12-18T08:45:56.095Z,101312.69
2022-12-18T08:48:23.025Z,101315.75
2022-12-18T08:50:57.519Z,101305.53
2022-12-18T08:53:27.559Z,101322.25
2022-12-18T08:55:59.872Z,101325.03
2022-12-18T08:58:26.779Z,101327.44
2022-12-18T09:00:53.578Z,101326.34
2022-12-18T09:03:20.902Z,101329.25
2022-12-18T09:05:47.781Z,101323.66
2022-12-18T09:08:14.652Z,101329.28
2022-12-18T09:10:46.388Z,101338.31
2022-12-18T09:13:13.966Z,101332.69
2022-12-18T09:15:44.603Z,101334.47
2022-12-18T09:18:11.403Z,101334.00
2022-12-18T09:20:39.301Z,101338.66
2022-12-18T09:23:06.689Z,101331.59
2022-12-18T09:25:34.486Z,101333.06
2022-12-18T09:28:01.387Z,101333.41
2022-12-18T09:30:28.985Z,101337.44
2022-12-18T09:32:56.036Z,101334.69
2022-12-18T09:35:23.126Z,101331.97
2022-12-18T09:37:49.917Z,101322.97
2022-12-18T09:40:23.410Z,101311.22
2022-12-18T09:42:56.187Z,101315.13
2022-12-18T09:45:24.487Z,101327.81
2022-12-18T09:47:53.381Z,101328.63
2022-12-18T09:50:35.857Z,101326.72
2022-12-18T09:53:19.446Z,101329.78
2022-12-18T09:55:49.365Z,101323.47
2022-12-18T09:58:28.258Z,101314.63
2022-12-18T10:00:55.682Z,101320.13
2022-12-18T10:03:22.896Z,101315.00
2022-12-18T10:06:07.730Z,101308.56
2022-12-18T10:08:49.297Z,101308.56
2022-12-18T10:11:43.351Z,101295.81
2022-12-18T10:14:37.444Z,101299.53
2022-12-18T10:17:20.047Z,101303.56
2022-12-18T10:19:56.007Z,101311.94
2022-12-18T10:22:54.964Z,101301.47
2022-12-18T10:25:26.472Z,101311.59
2022-12-18T10:28:01.156Z,101315.16
2022-12-18T10:30:28.042Z,101310.63
2022-12-18T10:32:54.908Z,101304.84
2022-12-18T10:35:25.021Z,101303.75
2022-12-18T10:38:04.017Z,101301.16
2022-12-18T10:40:31.255Z,101299.22
2022-12-18T10:43:05.996Z,101302.44
2022-12-18T10:45:32.869Z,101304.22
2022-12-18T10:48:00.034Z,101305.50
2022-12-18T10:51:08.738Z,101299.06
2022-12-18T10:53:24.705Z,101295.03
2022-12-18T10:55:55.059Z,101297.44
2022-12-18T10:58:27.489Z,101296.16
2022-12-18T11:01:18.158Z,101292.59
2022-12-18T11:04:10.427Z,101291.47
2022-12-18T11:06:54.370Z,101288.25
2022-12-18T11:09:23.891Z,101284.88
2022-12-18T11:11:52.309Z,101279.41
2022-12-18T11:14:47.335Z,101274.06
2022-12-18T11:17:35.593Z,101273.63
2022-12-18T11:20:06.332Z,101277.97
2022-12-18T11:22:35.853Z,101279.88
2022-12-18T11:27:57.634Z,101281.16
2022-12-18T11:30:28.984Z,101281.50
2022-12-18T11:33:01.592Z,101279.25
2022-12-18T11:35:28.261Z,101272.94
2022-12-18T11:38:00.719Z,101275.38
2022-12-18T11:40:41.259Z,101275.53
2022-12-18T11:43:15.936Z,101273.44
2022-12-18T11:45:53.623Z,101261.38
2022-12-18T11:48:29.106Z,101261.53
2022-12-18T11:50:58.580Z,101263.78
2022-12-18T11:53:27.277Z,101266.34
2022-12-18T11:55:59.844Z,101258.13
2022-12-18T11:58:47.679Z,101253.16
2022-12-18T12:01:26.661Z,101247.00
2022-12-18T12:04:08.350Z,101250.72
2022-12-18T12:07:03.332Z,101254.13
2022-12-18T12:10:19.688Z,101242.84
2022-12-18T12:12:48.663Z,101251.84
2022-12-18T12:15:45.601Z,101242.66
2022-12-18T12:18:24.287Z,101241.84
2022-12-18T12:20:54.571Z,101248.13
2022-12-18T12:23:26.084Z,101248.00
2022-12-18T12:26:03.960Z,101245.09
2022-12-18T12:28:42.821Z,101253.94
2022-12-18T12:31:31.030Z,101248.28
2022-12-18T12:34:04.872Z,101247.34
2022-12-18T12:36:39.115Z,101243.13
2022-12-18T12:39:12.773Z,101239.63
2022-12-18T12:41:42.695Z,101237.19
2022-12-18T12:44:17.538Z,101229.44
2022-12-18T12:46:44.863Z,101223.03
2022-12-18T12:49:16.836Z,101223.97
2022-12-18T12:51:48.660Z,101226.06
2022-12-18T12:54:24.636Z,101224.31
2022-12-18T12:57:24.437Z,101233.81
2022-12-18T13:00:14.043Z,101243.94
2022-12-18T13:02:54.046Z,101241.69
2022-12-18T13:05:39.658Z,101245.88
2022-12-18T13:08:12.457Z,101250.06
2022-12-18T13:10:41.930Z,101243.94
2022-12-18T13:13:10.669Z,101255.06
2022-12-18T13:15:46.324Z,101263.41
2022-12-18T13:18:24.901Z,101259.09
2022-12-18T13:21:04.942Z,101259.56
2022-12-18T13:23:41.883Z,101263.91
2022-12-18T13:26:09.351Z,101270.34
2022-12-18T13:28:48.260Z,101258.13
2022-12-18T13:31:36.517Z,101261.50
2022-12-18T13:34:26.760Z,101251.34
2022-12-18T13:36:57.046Z,101253.59
2022-12-18T13:39:34.751Z,101249.72
2022-12-18T13:42:08.356Z,101259.09
2022-12-18T13:44:40.902Z,101257.94
2022-12-18T13:47:32.166Z,101256.03
2022-12-18T13:49:59.377Z,101257.16
2022-12-18T13:52:29.346Z,101254.41
2022-12-18T13:54:59.498Z,101267.63
2022-12-18T13:57:28.980Z,101268.44
2022-12-18T13:59:58.697Z,101261.66
2022-12-18T14:02:28.353Z,101271.16
2022-12-18T14:04:56.555Z,101271.97
2022-12-18T14:07:31.478Z,101276.16
2022-12-18T14:10:40.796Z,101282.28
2022-12-18T14:12:52.649Z,101280.03
2022-12-18T14:15:42.289Z,101274.22
2022-12-18T14:18:32.299Z,101275.84
2022-12-18T14:21:01.701Z,101285.19
2022-12-18T14:23:43.212Z,101285.19
2022-12-18T14:26:28.569Z,101293.09
2022-12-18T14:29:16.424Z,101294.69
2022-12-18T14:31:44.327Z,101304.03
2022-12-18T14:34:18.361Z,101312.25
2022-12-18T14:36:54.220Z,101309.97
2022-12-18T14:39:21.194Z,101306.31
2022-12-18T14:41:49.993Z,101301.44
2022-12-18T14:44:16.992Z,101309.97
2022-12-18T14:46:46.185Z,101300.16
2022-12-18T14:49:19.368Z,101311.13
2022-12-18T14:51:52.795Z,101309.66
2022-12-18T14:54:22.171Z,101308.84
2022-12-18T14:57:00.757Z,101308.22
2022-12-18T14:59:29.685Z,101317.56
2022-12-18T15:02:14.839Z,101315.63
2022-12-18T15:04:45.174Z,101322.41
2022-12-18T15:07:17.245Z,101322.56
2022-12-18T15:10:02.022Z,101318.53
2022-12-18T15:12:44.852Z,101318.38
2022-12-18T15:15:37.636Z,101323.84
2022-12-18T15:18:12.673Z,101311.63
2022-12-18T15:20:46.306Z,101325.44
2022-12-18T15:23:50.220Z,101327.09
2022-12-18T15:26:20.209Z,101320.00
2022-12-18T15:28:51.854Z,101322.25
2022-12-18T15:31:32.876Z,101316.28
2022-12-18T15:34:14.122Z,101317.25
2022-12-18T15:36:41.723Z,101324.66
2022-12-18T15:39:12.972Z,101317.41
2022-12-18T15:41:41.043Z,101310.00
2022-12-18T15:44:26.251Z,101307.59
2022-12-18T15:46:53.932Z,101322.41
2022-12-18T15:49:21.833Z,101320.63
2022-12-18T15:51:56.278Z,101324.03
2022-12-18T15:54:24.292Z,101335.97
2022-12-18T15:56:51.624Z,101324.66
2022-12-18T15:59:21.010Z,101329.31
2022-12-18T16:01:51.213Z,101327.56
2022-12-18T16:04:21.570Z,101324.66
2022-12-18T16:09:39.543Z,101333.38
2022-12-18T16:12:25.311Z,101330.28
2022-12-18T16:14:53.007Z,101331.91
2022-12-18T16:17:20.541Z,101335.13
2022-12-18T16:19:56.738Z,101323.03
2022-12-18T16:22:27.582Z,101318.19
2022-12-18T16:24:56.513Z,101322.72
2022-12-18T16:27:25.554Z,101319.00
2022-12-18T16:29:53.470Z,101315.31
2022-12-18T16:32:26.412Z,101324.63
2022-12-18T16:34:54.601Z,101317.88
2022-12-18T16:37:23.933Z,101310.31
2022-12-18T16:39:51.620Z,101308.69
2022-12-18T16:42:21.511Z,101315.31
2022-12-18T16:44:50.700Z,101313.69
2022-12-18T16:47:18.804Z,101315.97
2022-12-18T16:49:47.101Z,101310.94
2022-12-18T16:52:17.795Z,101316.75
2022-12-18T16:54:45.884Z,101316.44
2022-12-18T16:57:15.823Z,101329.66
2022-12-18T16:59:45.329Z,101317.38
2022-12-18T17:02:27.305Z,101300.47
2022-12-18T17:04:59.420Z,101308.69
2022-12-18T17:07:28.679Z,101308.69
2022-12-18T17:09:56.793Z,101309.31
2022-12-18T17:12:28.201Z,101302.56
2022-12-18T17:14:56.293Z,101305.78
2022-12-18T17:17:24.339Z,101306.28
2022-12-18T17:19:53.115Z,101293.38
2022-12-18T17:22:22.369Z,101290.63
2022-12-18T17:24:51.727Z,101296.91
2022-12-18T17:27:19.632Z,101299.47
2022-12-18T17:29:48.781Z,101300.75
2022-12-18T17:32:18.789Z,101299.16
2022-12-18T17:34:47.419Z,101296.06
2022-12-18T17:37:15.919Z,101301.22
2022-12-18T17:39:44.273Z,101306.06
2022-12-18T17:42:15.446Z,101305.28
2022-12-18T17:44:45.072Z,101301.09
2022-12-18T17:47:14.842Z,101305.44
2022-12-18T17:49:43.783Z,101302.38
2022-12-18T17:52:11.952Z,101306.41
2022-12-18T17:54:40.061Z,101301.84
2022-12-18T17:57:08.276Z,101307.03
2022-12-18T17:59:36.005Z,101295.91
2022-12-18T18:02:03.913Z,101295.56
2022-12-18T18:04:32.855Z,101297.03
2022-12-18T18:07:01.597Z,101290.09
2022-12-18T18:09:29.867Z,101295.06
2022-12-18T18:11:57.386Z,101289.56
2022-12-18T18:14:25.857Z,101300.38
2022-12-18T18:16:58.212Z,101297.78
2022-12-18T18:19:34.044Z,101290.84
2022-12-18T18:22:01.324Z,101302.44
2022-12-18T18:24:29.042Z,101309.25
2022-12-18T18:26:58.473Z,101306.31
2022-12-18T18:29:27.846Z,101301.00
2022-12-18T18:31:58.206Z,101294.84
2022-12-18T18:34:29.135Z,101303.25
2022-12-18T18:36:56.808Z,101301.31
2022-12-18T18:39:25.858Z,101297.75
2022-12-18T18:41:53.825Z,101305.16
2022-12-18T18:44:25.578Z,101299.00
2022-12-18T18:46:58.231Z,101298.03
2022-12-18T18:49:28.191Z,101310.16
2022-12-18T18:51:59.075Z,101312.09
2022-12-18T18:54:29.121Z,101304.81
2022-12-18T18:57:19.916Z,101303.03
2022-12-18T18:59:47.204Z,101304.00
2022-12-18T19:02:16.913Z,101307.22
2022-12-18T19:04:47.030Z,101304.47
2022-12-18T19:07:29.641Z,101299.16
2022-12-18T19:10:04.272Z,101305.91
2022-12-18T19:12:33.964Z,101297.38
2022-12-18T19:15:01.247Z,101304.13
2022-12-18T19:17:30.593Z,101297.38
2022-12-18T19:19:59.698Z,101294.00
2022-12-18T19:22:27.263Z,101302.34
2022-12-18T19:24:55.871Z,101296.56
2022-12-18T19:27:23.785Z,101295.44
2022-12-18T19:29:51.215Z,101293.66
2022-12-18T19:32:19.009Z,101295.44
2022-12-18T19:34:48.041Z,101295.59
2022-12-18T19:37:16.151Z,101295.59
2022-12-18T19:39:43.962Z,101292.22
2022-12-18T19:42:13.088Z,101294.00
2022-12-18T19:44:42.572Z,101283.47
2022-12-18T19:47:10.625Z,101283.81
2022-12-18T19:49:38.501Z,101286.06
2022-12-18T19:52:06.093Z,101286.25
2022-12-18T19:54:33.734Z,101298.16
2022-12-18T19:57:01.310Z,101298.97
2022-12-18T19:59:29.604Z,101297.84
2022-12-18T20:01:57.748Z,101289.91
2022-12-18T20:04:27.078Z,101295.25
2022-12-18T20:06:58.570Z,101292.34
2022-12-18T20:09:26.964Z,101291.88
2022-12-18T20:11:56.923Z,101302.03
2022-12-18T20:14:25.006Z,101291.53
2022-12-18T20:16:56.711Z,101298.50
2022-12-18T20:19:26.832Z,101299.28
2022-12-18T20:21:54.731Z,101284.13
2022-12-18T20:24:22.423Z,101278.63
2022-12-18T20:26:50.068Z,101281.03
2022-12-18T20:29:18.101Z,101280.25
2022-12-18T20:31:46.575Z,101277.47
2022-12-18T20:34:15.582Z,101285.06
2022-12-18T20:36:43.580Z,101280.06
2022-12-18T20:39:13.367Z,101279.91
2022-12-18T20:41:41.488Z,101270.19
2022-12-18T20:44:22.699Z,101273.41
2022-12-18T20:46:57.127Z,101277.94
2022-12-18T20:49:26.087Z,101277.13
2022-12-18T20:51:55.101Z,101274.41
2022-12-18T20:54:24.371Z,101263.91
2022-12-18T20:56:52.224Z,101251.78
2022-12-18T20:59:19.247Z,101260.19
2022-12-18T21:01:48.898Z,101255.81
2022-12-18T21:04:18.982Z,101251.44
2022-12-18T21:06:52.882Z,101253.88
2022-12-18T21:09:25.009Z,101246.47
2022-12-18T21:11:52.015Z,101254.22
2022-12-18T21:14:22.937Z,101258.41
2022-12-18T21:16:50.643Z,101266.31
2022-12-18T21:19:20.555Z,101262.09
2022-12-18T21:21:47.979Z,101254.53
2022-12-18T21:24:15.859Z,101245.81
2022-12-18T21:26:45.791Z,101249.38
2022-12-18T21:29:19.079Z,101240.19
2022-12-18T21:31:47.040Z,101242.63
2022-12-18T21:34:25.761Z,101237.47
2022-12-18T21:36:53.737Z,101231.84
2022-12-18T21:39:21.240Z,101230.84
2022-12-18T21:41:50.161Z,101237.16
2022-12-18T21:44:19.538Z,101236.53
2022-12-18T21:46:53.126Z,101227.69
2022-12-18T21:49:24.344Z,101217.53
2022-12-18T21:51:56.033Z,101225.44
2022-12-18T21:54:23.809Z,101221.06
2022-12-18T21:56:56.261Z,101226.41
2022-12-18T21:59:29.640Z,101227.88
2022-12-18T22:02:00.502Z,101229.66
2022-12-18T22:04:28.539Z,101227.06
2022-12-18T22:06:56.733Z,101221.44
2022-12-18T22:09:26.155Z,101216.81
2022-12-18T22:11:53.572Z,101217.41
2022-12-18T22:14:22.106Z,101227.13
2022-12-18T22:16:49.977Z,101218.13
2022-12-18T22:19:18.565Z,101220.06
2022-12-18T22:21:49.786Z,101225.72
2022-12-18T22:24:22.345Z,101225.72
2022-12-18T22:26:50.354Z,101212.81
2022-12-18T22:29:20.125Z,101220.25
2022-12-18T22:31:47.286Z,101215.09
2022-12-18T22:34:14.191Z,101210.09
2022-12-18T22:36:46.589Z,101207.06
2022-12-18T22:39:19.608Z,101209.47
2022-12-18T22:41:46.473Z,101202.06
2022-12-18T22:44:15.726Z,101202.88
2022-12-18T22:46:50.803Z,101202.06
2022-12-18T22:49:31.350Z,101187.56
2022-12-18T22:51:59.177Z,101172.25
2022-12-18T22:54:25.930Z,101181.78
2022-12-18T22:56:52.633Z,101171.94
2022-12-18T22:59:23.449Z,101171.47
2022-12-18T23:01:54.183Z,101177.78
2022-12-18T23:04:31.215Z,101182.94
2022-12-18T23:07:05.104Z,101177.31
2022-12-18T23:09:32.807Z,101174.75
2022-12-18T23:11:59.799Z,101171.19
2022-12-18T23:14:26.882Z,101172.16
2022-12-18T23:16:53.634Z,101168.13
2022-12-18T23:19:21.640Z,101167.34
2022-12-18T23:21:51.376Z,101172.50
2022-12-18T23:24:18.278Z,101175.06
2022-12-18T23:26:45.164Z,101169.13
2022-12-18T23:29:12.024Z,101164.75
2022-12-18T23:31:39.795Z,101161.38
2022-12-18T23:34:07.364Z,101163.59
2022-12-18T23:36:41.835Z,101147.50
2022-12-18T23:39:22.373Z,101153.94
2022-12-18T23:41:59.646Z,101147.31
2022-12-18T23:44:27.153Z,101154.09
2022-12-18T23:46:54.025Z,101144.59
2022-12-18T23:49:20.853Z,101133.28
2022-12-18T23:51:47.817Z,101130.72
2022-12-18T23:54:14.608Z,101140.06
2022-12-18T23:56:41.482Z,101127.94
2022-12-18T23:59:08.398Z,101128.78
